Latest Weather Observations for Tibooburra Airport

IDN60801

Issued at 7:02 am EDT Tuesday 21 February 2017 (issued every 30 minutes, with the page automatically refreshed every 10 minutes)

About weather observations | Map of weather stations | Latest weather observations for NSW | Other Formats
Station Details ID: 046126 Name: TIBOOBURRA AIRPORT Lat: -29.44 Lon: 142.06 Height: 176.4 m
Data from the previous 72 hours. | See also: Recent months at Tibooburra Airport
Date/Time
EDT
Temp
°C
App
Temp
°C
Dew
Point
°C
Rel
Hum
%
Delta-T
°C
Wind Press
QNH
hPa
Press
MSL
hPa
Rain since
9am
mm
Dir  Spd
km/h
Gust
km/h
Spd
kts
Gust
kts
21/07:00am 17.4 13.1 -1.8 27 8.0 SSE 11 13 6 7 1017.6 1016.4 -
21/06:30am 17.6 13.3 -1.6 27 8.1 SE 11 13 6 7 1017.1 1015.9 0.0
21/06:00am 17.7 13.5 -1.0 28 8.0 SE 11 13 6 7 1016.9 1015.7 0.0
21/05:30am 18.0 13.7 -1.3 27 8.2 SE 11 13 6 7 1016.7 1015.5 0.0
21/05:00am 18.5 14.7 -0.8 27 8.3 SE 9 13 5 7 1016.4 1015.2 0.0
21/04:30am 19.3 14.3 -1.2 25 8.9 SE 15 19 8 10 1016.3 1015.1 0.0
21/04:00am 19.7 14.4 -0.9 25 9.0 SE 17 20 9 11 1016.3 1015.1 0.0
21/03:30am 20.0 14.6 -1.2 24 9.2 SE 17 20 9 11 1016.1 1015.0 0.0
21/03:00am 20.5 15.6 -0.7 24 9.3 SE 15 19 8 10 1016.4 1015.2 0.0
21/02:30am 20.8 15.5 -0.5 24 9.5 ESE 17 20 9 11 1016.3 1015.1 0.0
21/02:00am 21.5 15.6 -0.5 23 9.8 SE 20 26 11 14 1016.1 1015.0 0.0
21/01:30am 21.8 16.6 0.4 24 9.8 SE 17 22 9 12 1016.5 1015.3 0.0
21/01:00am 22.0 16.9 0.5 24 9.8 SE 17 22 9 12 1016.7 1015.5 0.0
21/12:30am 22.4 17.7 0.9 24 9.9 SSE 15 20 8 11 1017.1 1015.9 0.0
21/12:00am 22.3 18.0 1.3 25 9.8 SSE 13 15 7 8 1017.1 1015.9 0.0
 
Date/Time
EDT
Temp
°C
App
Temp
°C
Dew
Point
°C
Rel
Hum
%
Delta-T
°C
Wind Press
QNH
hPa
Press
MSL
hPa
Rain since
9am
mm
Dir  Spd
km/h
Gust
km/h
Spd
kts
Gust
kts
20/11:30pm 22.4 18.8 0.9 24 9.9 SSE 9 11 5 6 1017.1 1015.9 0.0
20/11:00pm 23.0 19.0 0.8 23 10.3 SSE 11 13 6 7 1017.0 1015.8 0.0
20/10:30pm 23.8 19.9 1.4 23 10.6 SSE 11 15 6 8 1016.7 1015.5 0.0
20/10:00pm 24.2 19.9 1.2 22 10.8 SSE 13 15 7 8 1016.6 1015.4 0.0
20/09:30pm 24.6 20.6 0.8 21 11.2 S 11 13 6 7 1016.1 1015.0 0.0
20/09:00pm 25.3 20.6 0.8 20 11.6 S 15 19 8 10 1015.8 1014.7 0.0
20/08:30pm 25.7 21.0 1.1 20 11.7 S 15 20 8 11 1015.4 1014.3 0.0
20/08:00pm 26.2 21.5 0.8 19 12.1 S 15 24 8 13 1014.9 1013.7 0.0
20/07:30pm 27.1 23.4 0.0 17 12.8 S 9 15 5 8 1014.5 1013.3 0.0
20/07:00pm 27.2 22.8 0.1 17 12.8 SSE 13 20 7 11 1014.0 1012.8 0.0
20/06:30pm 27.7 22.4 -0.4 16 13.2 SSW 17 26 9 14 1014.0 1012.8 0.0
20/06:00pm 27.6 22.3 -0.5 16 13.2 SSW 17 24 9 13 1013.8 1012.6 0.0
20/05:30pm 27.8 23.4 0.5 17 13.1 SW 13 26 7 14 1013.8 1012.6 0.0
20/05:00pm 26.7 21.8 -0.3 17 12.6 SE 15 28 8 15 1013.8 1012.6 0.0
20/04:30pm 27.1 23.0 0.0 17 12.8 SW 11 22 6 12 1014.0 1012.8 0.0
20/04:00pm 26.9 22.9 0.6 18 12.5 SE 11 19 6 10 1014.4 1013.2 0.0
20/03:30pm 26.6 22.2 0.4 18 12.4 SW 13 24 7 13 1014.7 1013.5 0.0
20/03:00pm 26.1 20.9 0.0 18 12.2 SSW 17 26 9 14 1015.1 1013.9 0.0
20/02:30pm 25.9 21.2 1.2 20 11.8 S 15 28 8 15 1015.3 1014.1 0.0
20/02:00pm 25.1 19.7 1.3 21 11.3 S 19 30 10 16 1015.8 1014.7 0.0
20/01:30pm 24.8 20.7 2.3 23 10.9 SSE 13 26 7 14 1016.0 1014.9 0.0
20/01:00pm 24.1 19.6 2.3 24 10.5 SE 15 24 8 13 1016.1 1015.0 0.0
20/12:30pm 23.6 18.8 2.4 25 10.2 SSE 17 26 9 14 1016.7 1015.5 0.0
20/12:00pm 23.0 18.2 2.5 26 9.8 SE 17 26 9 14 1016.8 1015.6 0.0
20/11:30am 22.5 17.2 2.1 26 9.7 ESE 19 24 10 13 1017.0 1015.8 0.0
20/11:00am 23.0 17.9 3.0 27 9.7 SE 19 32 10 17 1017.2 1016.0 0.0
20/10:30am 21.4 16.0 2.6 29 8.9 SE 20 30 11 16 1017.3 1016.1 0.0
20/10:00am 20.7 14.6 3.0 31 8.4 SE 24 30 13 16 1017.1 1015.9 0.0
20/09:30am 19.9 13.3 2.3 31 8.2 SSE 26 35 14 19 1017.0 1015.8 0.0
20/09:00am 19.9 13.3 1.8 30 8.3 SSE 26 39 14 21 1016.8 1015.6 0.0
20/08:53am 19.5 13.9 1.5 30 8.2 SSE 20 39 11 21 1016.6 1015.4 0.0
20/08:30am 18.5 14.2 1.1 31 7.8 S 13 19 7 10 1016.1 1015.0 0.0
20/08:00am 16.5 12.9 0.6 34 7.0 SW 9 11 5 6 1015.9 1014.8 0.0
20/07:30am 15.1 11.5 0.5 37 6.3 SSW 9 11 5 6 1015.5 1014.4 0.0
20/07:00am 15.1 11.9 0.5 37 6.3 SW 7 9 4 5 1015.1 1013.9 0.0
20/06:30am 15.3 12.0 0.3 36 6.5 WSW 7 9 4 5 1015.0 1013.8 0.0
20/06:00am 15.3 12.0 -0.1 35 6.6 SW 7 7 4 4 1014.7 1013.5 0.0
20/05:30am 15.6 11.9 -0.2 34 6.7 S 9 11 5 6 1014.7 1013.5 0.0
20/05:00am 15.9 12.5 -0.3 33 6.9 SW 7 9 4 5 1014.9 1013.7 0.0
20/04:30am 16.8 13.6 0.5 33 7.1 SSW 7 9 4 5 1014.8 1013.6 0.0
20/04:00am 16.8 13.5 0.0 32 7.3 SSW 7 9 4 5 1014.9 1013.7 0.0
20/03:30am 16.9 13.2 -0.3 31 7.4 SSW 9 11 5 6 1014.8 1013.6 0.0
20/03:00am 17.6 13.4 -0.6 29 7.8 SW 11 13 6 7 1014.8 1013.6 0.0
20/02:30am 17.8 14.0 -0.5 29 7.9 WSW 9 11 5 6 1015.0 1013.8 0.0
20/02:00am 18.0 13.8 -0.8 28 8.1 SW 11 13 6 7 1014.8 1013.6 0.0
20/01:30am 18.3 13.7 -1.0 27 8.3 WSW 13 13 7 7 1014.9 1013.7 0.0
20/01:00am 18.4 14.2 -0.9 27 8.3 SW 11 11 6 6 1014.8 1013.6 0.0
20/12:30am 19.1 14.8 -1.4 25 8.8 WSW 11 13 6 7 1014.8 1013.6 0.0
20/12:00am 19.8 15.2 -0.8 25 9.0 WSW 13 15 7 8 1014.8 1013.6 0.0
 
Date/Time
EDT
Temp
°C
App
Temp
°C
Dew
Point
°C
Rel
Hum
%
Delta-T
°C
Wind Press
QNH
hPa
Press
MSL
hPa
Rain since
9am
mm
Dir  Spd
km/h
Gust
km/h
Spd
kts
Gust
kts
19/11:30pm 20.5 15.5 -1.3 23 9.5 SW 15 17 8 9 1014.7 1013.5 0.0
19/11:00pm 21.0 16.0 -1.5 22 9.8 SW 15 17 8 9 1014.6 1013.4 0.0
19/10:30pm 21.5 16.1 -1.7 21 10.1 SSW 17 20 9 11 1014.6 1013.4 0.0
19/10:00pm 21.7 16.6 -2.2 20 10.3 SSW 15 17 8 9 1014.5 1013.3 0.0
19/09:30pm 22.3 16.8 -2.4 19 10.7 SSW 17 20 9 11 1014.1 1012.9 0.0
19/09:00pm 22.8 16.2 -3.5 17 11.2 SSW 22 30 12 16 1013.8 1012.6 0.0
19/08:30pm 23.2 16.2 -3.2 17 11.4 SSW 24 33 13 18 1013.5 1012.3 0.0
19/08:00pm 23.9 16.9 -3.4 16 11.8 S 24 30 13 16 1013.1 1011.9 0.0
19/07:30pm 24.6 17.2 -3.7 15 12.2 SSW 26 35 14 19 1012.8 1011.6 0.0
19/07:00pm 25.1 17.6 -4.2 14 12.6 SSW 26 39 14 21 1012.6 1011.4 0.0
19/06:30pm 25.6 18.6 -3.8 14 12.8 SSW 24 33 13 18 1012.3 1011.1 0.0
19/06:00pm 25.6 18.3 -2.9 15 12.6 SW 26 39 14 21 1012.2 1011.0 0.0
19/05:30pm 25.8 19.4 -1.9 16 12.5 SSW 22 39 12 21 1012.3 1011.1 0.0
19/05:00pm 25.9 20.5 -1.0 17 12.3 SSW 17 28 9 15 1012.3 1011.1 0.0
19/04:30pm 25.4 19.7 -0.6 18 12.0 SW 19 35 10 19 1012.5 1011.3 0.0
19/04:00pm 25.4 18.5 0.1 19 11.8 SW 26 37 14 20 1012.8 1011.6 0.0
19/03:30pm 24.8 18.7 0.3 20 11.4 SW 22 35 12 19 1013.2 1012.0 0.0
19/03:00pm 24.3 19.2 0.6 21 11.1 SSW 17 28 9 15 1013.3 1012.1 0.0
19/02:30pm 24.3 19.3 1.2 22 10.9 SSW 17 26 9 14 1013.7 1012.5 0.0
19/02:00pm 24.8 19.5 1.7 22 11.0 SSW 19 33 10 18 1013.7 1012.5 0.0
19/01:30pm 24.7 19.3 2.2 23 10.9 SSW 20 33 11 18 1014.2 1013.0 0.0
19/01:00pm 23.6 18.7 1.9 24 10.3 S 17 26 9 14 1014.6 1013.4 0.0
19/12:30pm 24.3 18.9 2.5 24 10.5 SSW 20 30 11 16 1015.0 1013.8 0.0
19/12:00pm 22.8 17.4 2.3 26 9.8 SSE 20 28 11 15 1015.4 1014.3 0.0
19/11:30am 22.2 15.9 1.8 26 9.6 SSE 24 33 13 18 1015.5 1014.4 0.0
19/11:00am 21.5 15.3 2.2 28 9.1 S 24 33 13 18 1015.8 1014.7 0.0
19/10:30am 20.9 14.8 2.7 30 8.6 S 24 37 13 20 1016.0 1014.9 0.0
19/10:00am 20.5 14.1 3.3 32 8.2 SSE 26 33 14 18 1015.6 1014.5 0.0
19/09:30am 19.4 12.5 2.7 33 7.8 S 28 37 15 20 1015.4 1014.3 0.0
19/09:00am 19.1 12.3 2.9 34 7.6 S 28 35 15 19 1015.2 1014.0 0.0
19/08:30am 18.4 11.5 2.7 35 7.3 S 28 35 15 19 1015.1 1013.9 0.0
19/08:00am 17.8 11.7 2.5 36 7.0 S 24 30 13 16 1014.8 1013.6 0.0
19/07:30am 17.3 11.9 2.5 37 6.8 S 20 28 11 15 1014.6 1013.4 0.0
19/07:00am 17.5 11.7 2.3 36 7.0 S 22 30 12 16 1014.0 1012.8 0.0
19/06:30am 17.7 12.2 2.1 35 7.1 S 20 26 11 14 1013.7 1012.5 0.0
19/06:00am 17.9 13.0 1.8 34 7.3 SSW 17 22 9 12 1013.5 1012.3 0.0
19/05:30am 18.1 13.9 1.6 33 7.5 S 13 17 7 9 1013.0 1011.8 0.0
19/05:00am 18.5 14.0 1.9 33 7.6 S 15 17 8 9 1012.8 1011.6 0.0
19/04:30am 19.2 13.9 2.1 32 7.9 S 19 24 10 13 1012.6 1011.4 0.0
19/04:00am 19.6 14.1 2.0 31 8.1 S 20 26 11 14 1012.5 1011.3 0.0
19/03:30am 20.3 14.1 2.2 30 8.4 S 24 32 13 17 1012.4 1011.2 0.0
19/03:00am 20.6 15.1 2.0 29 8.7 S 20 30 11 16 1012.4 1011.2 0.0
19/02:30am 21.1 15.8 1.9 28 9.0 S 19 24 10 13 1012.5 1011.3 0.0
19/02:00am 21.3 16.3 1.6 27 9.2 S 17 20 9 11 1012.6 1011.4 0.0
19/01:30am 21.8 16.8 1.5 26 9.5 S 17 20 9 11 1012.7 1011.5 0.0
19/01:00am 22.3 16.8 0.8 24 9.9 S 19 24 10 13 1012.7 1011.5 0.0
19/12:30am 22.7 16.7 1.1 24 10.1 S 22 30 12 16 1012.7 1011.5 0.0
19/12:00am 23.2 16.9 1.5 24 10.2 S 24 35 13 19 1012.6 1011.4 0.0
 
Date/Time
EDT
Temp
°C
App
Temp
°C
Dew
Point
°C
Rel
Hum
%
Delta-T
°C
Wind Press
QNH
hPa
Press
MSL
hPa
Rain since
9am
mm
Dir  Spd
km/h
Gust
km/h
Spd
kts
Gust
kts
18/11:30pm 23.6 17.3 1.3 23 10.5 S 24 30 13 16 1012.6 1011.4 0.0
18/11:00pm 23.9 18.3 1.5 23 10.6 S 20 32 11 17 1012.5 1011.3 0.0
18/10:30pm 24.3 18.4 1.9 23 10.7 SSW 22 30 12 16 1012.3 1011.1 0.0
18/10:00pm 24.7 18.4 1.6 22 11.0 SSW 24 32 13 17 1012.1 1010.9 0.0
18/09:30pm 25.2 17.7 1.3 21 11.4 SSW 30 41 16 22 1011.7 1010.5 0.0
18/09:00pm 25.6 17.8 1.7 21 11.5 SSW 32 43 17 23 1011.3 1010.1 0.0
18/08:30pm 26.1 18.4 0.0 18 12.2 SSW 30 39 16 21 1010.8 1009.6 0.0
18/08:00pm 26.8 18.6 0.5 18 12.5 SSW 33 43 18 23 1010.5 1009.3 0.0
18/07:30pm 27.7 20.1 0.5 17 13.0 SW 30 39 16 21 1010.2 1009.0 0.0
18/07:00pm 28.3 20.4 0.9 17 13.3 SSW 32 43 17 23 1009.7 1008.5 0.0
18/06:30pm 29.2 21.6 0.8 16 13.8 SW 30 41 16 22 1009.7 1008.5 0.0
18/06:12pm 28.9 21.8 1.4 17 13.5 SSW 28 46 15 25 1009.7 1008.5 0.0
18/06:00pm 29.8 22.8 2.1 17 13.8 SSW 28 44 15 24 1009.8 1008.6 0.0
18/05:30pm 29.9 23.2 1.4 16 14.0 SSW 26 39 14 21 1009.9 1008.7 0.0
18/05:00pm 30.0 23.2 3.1 18 13.7 SSW 28 39 15 21 1010.2 1009.0 0.0
18/04:30pm 29.7 22.6 3.6 19 13.3 SSW 30 44 16 24 1010.4 1009.2 0.0
18/04:15pm 29.9 23.1 3.0 18 13.6 SSW 28 50 15 27 1010.4 1009.2 0.0
18/04:00pm 29.8 22.2 2.9 18 13.6 SSW 32 48 17 26 1010.6 1009.4 0.0
18/03:30pm 29.9 22.4 4.5 20 13.2 S 33 46 18 25 1010.9 1009.7 0.0
18/03:10pm 28.8 22.0 5.0 22 12.4 SW 30 48 16 26 1011.0 1009.8 0.0
18/03:00pm 29.4 22.4 6.1 23 12.4 SSW 32 46 17 25 1011.1 1009.9 0.0
18/02:30pm 28.4 21.3 6.5 25 11.7 SW 33 46 18 25 1011.4 1010.2 0.0
18/02:00pm 29.4 23.4 8.5 27 11.6 S 30 39 16 21 1011.5 1010.3 0.0
18/01:53pm 28.3 22.5 8.1 28 11.1 S 28 46 15 25 1011.6 1010.4 0.0
18/01:30pm 28.5 22.0 8.2 28 11.1 S 32 44 17 24 1011.7 1010.5 0.0
18/01:00pm 28.1 21.7 8.4 29 10.8 S 32 46 17 25 1011.7 1010.5 0.0
18/12:30pm 27.7 21.0 7.5 28 10.9 SSW 32 44 17 24 1011.9 1010.7 0.0
18/12:00pm 26.9 20.6 7.4 29 10.5 S 30 39 16 21 1012.0 1010.8 0.0
18/11:30am 26.1 19.2 7.2 30 10.1 S 33 48 18 26 1012.1 1010.9 0.0
18/11:00am 25.6 18.3 7.2 31 9.8 S 35 44 19 24 1012.2 1011.0 0.0
18/10:30am 25.3 18.4 7.4 32 9.5 S 33 44 18 24 1012.2 1011.0 0.0
18/10:00am 24.3 16.3 7.4 34 8.9 S 39 48 21 26 1012.1 1010.9 0.0
18/09:30am 23.6 15.9 7.3 35 8.6 S 37 48 20 26 1011.8 1010.6 0.0
18/09:00am 23.3 15.3 7.4 36 8.4 S 39 48 21 26 1011.6 1010.4 0.0
18/08:34am 22.8 15.5 7.0 36 8.2 S 35 54 19 29 1011.3 1010.1 0.0
18/08:30am 23.0 15.7 7.1 36 8.3 S 35 46 19 25 1011.2 1010.0 0.0
18/08:00am 22.7 16.2 6.5 35 8.4 S 30 41 16 22 1011.0 1009.8 0.0
18/07:30am 22.6 16.0 6.0 34 8.5 S 30 39 16 21 1010.6 1009.4 0.0

Other Formats:

Comma delimited format used in spreadsheet applications
http://www.bom.gov.au/fwo/IDN60801/IDN60801.95485.axf

JavaScript Object Notation format (JSON) in row-major order
http://www.bom.gov.au/fwo/IDN60801/IDN60801.95485.json